sensor_id;sensor_type;location;lat;lon;timestamp;temperature;humidity
2623;DHT22;1321;48.690;9.022;2022-11-21T00:01:19;6.00;99.90
2623;DHT22;1321;48.690;9.022;2022-11-21T00:03:48;6.00;99.90
2623;DHT22;1321;48.690;9.022;2022-11-21T00:06:17;6.20;99.90
2623;DHT22;1321;48.690;9.022;2022-11-21T00:08:45;6.20;1.00
2623;DHT22;1321;48.690;9.022;2022-11-21T00:11:14;6.20;1.00
2623;DHT22;1321;48.690;9.022;2022-11-21T00:13:44;6.30;99.90
2623;DHT22;1321;48.690;9.022;2022-11-21T00:16:14;6.10;4.00
2623;DHT22;1321;48.690;9.022;2022-11-21T00:18:42;6.00;99.90
2623;DHT22;1321;48.690;9.022;2022-11-21T00:21:12;6.00;1.00
2623;DHT22;1321;48.690;9.022;2022-11-21T00:23:40;5.70;52.60
2623;DHT22;1321;48.690;9.022;2022-11-21T00:26:10;5.70;1.00
2623;DHT22;1321;48.690;9.022;2022-11-21T00:28:39;5.80;1.00
2623;DHT22;1321;48.690;9.022;2022-11-21T00:31:17;5.70;1.00
2623;DHT22;1321;48.690;9.022;2022-11-21T00:33:45;5.70;99.90
2623;DHT22;1321;48.690;9.022;2022-11-21T00:36:14;5.60;58.30
2623;DHT22;1321;48.690;9.022;2022-11-21T00:38:42;5.60;9.20
2623;DHT22;1321;48.690;9.022;2022-11-21T00:41:10;5.60;99.90
2623;DHT22;1321;48.690;9.022;2022-11-21T00:43:38;5.60;1.00
2623;DHT22;1321;48.690;9.022;2022-11-21T00:46:06;5.50;20.20
2623;DHT22;1321;48.690;9.022;2022-11-21T00:48:35;5.60;96.80
2623;DHT22;1321;48.690;9.022;2022-11-21T00:51:04;5.60;1.00
2623;DHT22;1321;48.690;9.022;2022-11-21T00:53:32;5.60;99.90
2623;DHT22;1321;48.690;9.022;2022-11-21T00:56:00;5.40;99.90
2623;DHT22;1321;48.690;9.022;2022-11-21T00:58:28;5.50;78.20
2623;DHT22;1321;48.690;9.022;2022-11-21T01:01:05;5.40;1.00
2623;DHT22;1321;48.690;9.022;2022-11-21T01:03:34;5.40;99.90
2623;DHT22;1321;48.690;9.022;2022-11-21T01:06:05;5.50;1.00
2623;DHT22;1321;48.690;9.022;2022-11-21T01:08:35;5.50;99.90
2623;DHT22;1321;48.690;9.022;2022-11-21T01:11:03;5.60;99.90
2623;DHT22;1321;48.690;9.022;2022-11-21T01:13:32;5.60;99.90
2623;DHT22;1321;48.690;9.022;2022-11-21T01:16:05;5.60;99.90
2623;DHT22;1321;48.690;9.022;2022-11-21T01:18:35;5.70;99.90
2623;DHT22;1321;48.690;9.022;2022-11-21T01:21:06;5.70;1.00
2623;DHT22;1321;48.690;9.022;2022-11-21T01:23:35;5.60;99.90
2623;DHT22;1321;48.690;9.022;2022-11-21T01:26:04;5.60;1.00
2623;DHT22;1321;48.690;9.022;2022-11-21T01:28:32;5.60;99.90
2623;DHT22;1321;48.690;9.022;2022-11-21T01:31:05;5.60;99.90
2623;DHT22;1321;48.690;9.022;2022-11-21T01:33:33;5.60;99.90
2623;DHT22;1321;48.690;9.022;2022-11-21T01:36:08;5.70;1.00
2623;DHT22;1321;48.690;9.022;2022-11-21T01:38:37;5.70;1.00
2623;DHT22;1321;48.690;9.022;2022-11-21T01:41:06;5.80;1.00
2623;DHT22;1321;48.690;9.022;2022-11-21T01:43:34;5.80;99.90
2623;DHT22;1321;48.690;9.022;2022-11-21T01:46:08;5.80;1.00
2623;DHT22;1321;48.690;9.022;2022-11-21T01:48:41;5.70;1.00
2623;DHT22;1321;48.690;9.022;2022-11-21T01:51:15;5.70;9.90
2623;DHT22;1321;48.690;9.022;2022-11-21T01:53:49;5.80;1.00
2623;DHT22;1321;48.690;9.022;2022-11-21T01:56:18;5.80;1.00
2623;DHT22;1321;48.690;9.022;2022-11-21T01:58:48;5.80;1.00
2623;DHT22;1321;48.690;9.022;2022-11-21T02:01:18;5.90;99.90
2623;DHT22;1321;48.690;9.022;2022-11-21T02:03:47;5.90;1.00
2623;DHT22;1321;48.690;9.022;2022-11-21T02:06:17;5.90;1.00
2623;DHT22;1321;48.690;9.022;2022-11-21T02:08:45;6.00;99.90
2623;DHT22;1321;48.690;9.022;2022-11-21T02:11:19;6.00;99.90
2623;DHT22;1321;48.690;9.022;2022-11-21T02:13:48;6.00;99.90
2623;DHT22;1321;48.690;9.022;2022-11-21T02:16:16;6.00;99.60
2623;DHT22;1321;48.690;9.022;2022-11-21T02:18:45;6.00;99.90
2623;DHT22;1321;48.690;9.022;2022-11-21T02:21:21;5.90;99.90
2623;DHT22;1321;48.690;9.022;2022-11-21T02:23:55;5.90;1.00
2623;DHT22;1321;48.690;9.022;2022-11-21T02:26:28;5.80;99.90
2623;DHT22;1321;48.690;9.022;2022-11-21T02:28:57;5.90;1.00
2623;DHT22;1321;48.690;9.022;2022-11-21T02:31:26;5.90;99.90
2623;DHT22;1321;48.690;9.022;2022-11-21T02:33:54;5.80;99.90
2623;DHT22;1321;48.690;9.022;2022-11-21T02:36:41;5.90;99.90
2623;DHT22;1321;48.690;9.022;2022-11-21T02:39:13;5.80;99.90
2623;DHT22;1321;48.690;9.022;2022-11-21T02:41:50;5.80;1.00
2623;DHT22;1321;48.690;9.022;2022-11-21T02:44:23;5.80;1.00
2623;DHT22;1321;48.690;9.022;2022-11-21T02:46:53;5.70;1.00
2623;DHT22;1321;48.690;9.022;2022-11-21T02:49:29;5.70;78.40
2623;DHT22;1321;48.690;9.022;2022-11-21T02:51:58;5.70;1.00
2623;DHT22;1321;48.690;9.022;2022-11-21T02:54:26;5.60;99.90
2623;DHT22;1321;48.690;9.022;2022-11-21T02:56:56;5.60;1.00
2623;DHT22;1321;48.690;9.022;2022-11-21T02:59:25;5.60;99.90
2623;DHT22;1321;48.690;9.022;2022-11-21T03:01:53;5.70;99.90
2623;DHT22;1321;48.690;9.022;2022-11-21T03:04:25;5.60;99.90
2623;DHT22;1321;48.690;9.022;2022-11-21T03:06:55;5.60;1.00
2623;DHT22;1321;48.690;9.022;2022-11-21T03:09:23;5.60;99.90
2623;DHT22;1321;48.690;9.022;2022-11-21T03:11:51;5.60;1.00
2623;DHT22;1321;48.690;9.022;2022-11-21T03:14:20;5.60;80.90
2623;DHT22;1321;48.690;9.022;2022-11-21T03:16:48;5.70;99.90
2623;DHT22;1321;48.690;9.022;2022-11-21T03:19:17;5.80;99.90
2623;DHT22;1321;48.690;9.022;2022-11-21T03:21:45;5.80;1.00
2623;DHT22;1321;48.690;9.022;2022-11-21T03:24:13;5.80;1.00
2623;DHT22;1321;48.690;9.022;2022-11-21T03:26:41;5.80;99.90
2623;DHT22;1321;48.690;9.022;2022-11-21T03:29:09;5.70;99.90
2623;DHT22;1321;48.690;9.022;2022-11-21T03:31:39;5.60;1.00
2623;DHT22;1321;48.690;9.022;2022-11-21T03:34:07;5.40;99.90
2623;DHT22;1321;48.690;9.022;2022-11-21T03:36:35;5.50;99.90
2623;DHT22;1321;48.690;9.022;2022-11-21T03:39:04;5.40;99.90
2623;DHT22;1321;48.690;9.022;2022-11-21T03:41:32;5.50;1.00
2623;DHT22;1321;48.690;9.022;2022-11-21T03:44:02;5.50;99.90
2623;DHT22;1321;48.690;9.022;2022-11-21T03:46:32;5.50;99.90
2623;DHT22;1321;48.690;9.022;2022-11-21T03:49:02;5.60;1.00
2623;DHT22;1321;48.690;9.022;2022-11-21T03:51:31;5.70;99.90
2623;DHT22;1321;48.690;9.022;2022-11-21T03:54:00;5.70;1.00
2623;DHT22;1321;48.690;9.022;2022-11-21T03:56:28;5.60;98.20
2623;DHT22;1321;48.690;9.022;2022-11-21T03:58:57;5.60;1.00
2623;DHT22;1321;48.690;9.022;2022-11-21T04:01:25;5.60;99.90
2623;DHT22;1321;48.690;9.022;2022-11-21T04:03:59;5.50;99.90
2623;DHT22;1321;48.690;9.022;2022-11-21T04:06:29;5.60;99.90
2623;DHT22;1321;48.690;9.022;2022-11-21T04:08:58;5.60;99.90
2623;DHT22;1321;48.690;9.022;2022-11-21T04:11:26;5.70;99.90
2623;DHT22;1321;48.690;9.022;2022-11-21T04:13:54;5.80;99.90
2623;DHT22;1321;48.690;9.022;2022-11-21T04:16:22;5.80;1.00
2623;DHT22;1321;48.690;9.022;2022-11-21T04:18:50;5.90;98.80
2623;DHT22;1321;48.690;9.022;2022-11-21T04:21:18;6.00;99.90
2623;DHT22;1321;48.690;9.022;2022-11-21T04:23:48;6.10;1.00
2623;DHT22;1321;48.690;9.022;2022-11-21T04:26:16;6.00;99.90
2623;DHT22;1321;48.690;9.022;2022-11-21T04:28:44;6.00;1.00
2623;DHT22;1321;48.690;9.022;2022-11-21T04:31:13;5.90;1.00
2623;DHT22;1321;48.690;9.022;2022-11-21T04:33:41;5.90;99.90
2623;DHT22;1321;48.690;9.022;2022-11-21T04:36:10;6.00;27.90
2623;DHT22;1321;48.690;9.022;2022-11-21T04:38:38;6.10;1.00
2623;DHT22;1321;48.690;9.022;2022-11-21T04:41:07;6.00;1.00
2623;DHT22;1321;48.690;9.022;2022-11-21T04:43:35;6.00;1.00
2623;DHT22;1321;48.690;9.022;2022-11-21T04:46:04;6.00;1.00
2623;DHT22;1321;48.690;9.022;2022-11-21T04:48:32;6.20;99.90
2623;DHT22;1321;48.690;9.022;2022-11-21T04:51:00;6.20;99.90
2623;DHT22;1321;48.690;9.022;2022-11-21T04:53:28;6.10;99.90
2623;DHT22;1321;48.690;9.022;2022-11-21T04:55:56;6.20;1.00
2623;DHT22;1321;48.690;9.022;2022-11-21T04:58:27;6.20;75.00
2623;DHT22;1321;48.690;9.022;2022-11-21T05:00:55;6.20;1.00
2623;DHT22;1321;48.690;9.022;2022-11-21T05:03:23;6.20;1.00
2623;DHT22;1321;48.690;9.022;2022-11-21T05:05:51;6.30;99.90
2623;DHT22;1321;48.690;9.022;2022-11-21T05:08:19;6.30;75.10
2623;DHT22;1321;48.690;9.022;2022-11-21T05:10:48;6.30;99.90
2623;DHT22;1321;48.690;9.022;2022-11-21T05:13:35;6.30;1.00
2623;DHT22;1321;48.690;9.022;2022-11-21T05:16:03;6.40;13.00
2623;DHT22;1321;48.690;9.022;2022-11-21T05:18:31;6.30;1.00
2623;DHT22;1321;48.690;9.022;2022-11-21T05:21:00;6.40;99.90
2623;DHT22;1321;48.690;9.022;2022-11-21T05:23:29;6.40;99.90
2623;DHT22;1321;48.690;9.022;2022-11-21T05:25:57;6.40;99.90
2623;DHT22;1321;48.690;9.022;2022-11-21T05:28:25;6.40;99.90
2623;DHT22;1321;48.690;9.022;2022-11-21T05:30:55;6.40;99.90
2623;DHT22;1321;48.690;9.022;2022-11-21T05:33:23;6.30;99.90
2623;DHT22;1321;48.690;9.022;2022-11-21T05:35:51;6.30;1.00
2623;DHT22;1321;48.690;9.022;2022-11-21T05:38:19;6.40;99.90
2623;DHT22;1321;48.690;9.022;2022-11-21T05:40:47;6.40;1.00
2623;DHT22;1321;48.690;9.022;2022-11-21T05:43:15;6.40;10.20
2623;DHT22;1321;48.690;9.022;2022-11-21T05:46:02;6.30;1.00
2623;DHT22;1321;48.690;9.022;2022-11-21T05:48:30;6.30;1.00
2623;DHT22;1321;48.690;9.022;2022-11-21T05:50:59;6.40;99.90
2623;DHT22;1321;48.690;9.022;2022-11-21T05:53:28;6.40;59.40
2623;DHT22;1321;48.690;9.022;2022-11-21T05:56:00;6.40;1.00
2623;DHT22;1321;48.690;9.022;2022-11-21T05:58:44;6.40;1.00
2623;DHT22;1321;48.690;9.022;2022-11-21T06:01:14;6.40;1.00
2623;DHT22;1321;48.690;9.022;2022-11-21T06:04:02;6.40;1.00
2623;DHT22;1321;48.690;9.022;2022-11-21T06:06:29;6.30;1.00
2623;DHT22;1321;48.690;9.022;2022-11-21T06:08:58;6.30;1.00
2623;DHT22;1321;48.690;9.022;2022-11-21T06:11:26;6.20;1.00
2623;DHT22;1321;48.690;9.022;2022-11-21T06:13:55;6.30;27.40
2623;DHT22;1321;48.690;9.022;2022-11-21T06:16:23;6.20;1.00
2623;DHT22;1321;48.690;9.022;2022-11-21T06:18:52;6.30;99.90
2623;DHT22;1321;48.690;9.022;2022-11-21T06:21:25;6.20;99.90
2623;DHT22;1321;48.690;9.022;2022-11-21T06:23:56;6.30;99.90
2623;DHT22;1321;48.690;9.022;2022-11-21T06:26:25;6.20;99.90
2623;DHT22;1321;48.690;9.022;2022-11-21T06:28:55;6.10;99.90
2623;DHT22;1321;48.690;9.022;2022-11-21T06:31:24;6.20;99.90
2623;DHT22;1321;48.690;9.022;2022-11-21T06:33:53;6.00;99.90
2623;DHT22;1321;48.690;9.022;2022-11-21T06:36:22;6.00;1.00
2623;DHT22;1321;48.690;9.022;2022-11-21T06:38:52;5.90;1.00
2623;DHT22;1321;48.690;9.022;2022-11-21T06:41:21;5.80;99.90
2623;DHT22;1321;48.690;9.022;2022-11-21T06:43:49;5.90;99.90
2623;DHT22;1321;48.690;9.022;2022-11-21T06:46:19;5.90;1.00
2623;DHT22;1321;48.690;9.022;2022-11-21T06:48:47;5.80;1.00
2623;DHT22;1321;48.690;9.022;2022-11-21T06:51:17;5.90;99.90
2623;DHT22;1321;48.690;9.022;2022-11-21T06:53:45;5.90;99.90
2623;DHT22;1321;48.690;9.022;2022-11-21T06:56:14;5.90;35.30
2623;DHT22;1321;48.690;9.022;2022-11-21T06:58:42;5.90;1.00
2623;DHT22;1321;48.690;9.022;2022-11-21T07:01:10;5.90;99.90
2623;DHT22;1321;48.690;9.022;2022-11-21T07:03:40;5.80;99.90
2623;DHT22;1321;48.690;9.022;2022-11-21T07:06:08;5.70;1.00
2623;DHT22;1321;48.690;9.022;2022-11-21T07:08:37;5.70;99.90
2623;DHT22;1321;48.690;9.022;2022-11-21T07:11:08;5.60;1.00
2623;DHT22;1321;48.690;9.022;2022-11-21T07:13:50;5.50;93.30
2623;DHT22;1321;48.690;9.022;2022-11-21T07:16:18;5.60;99.90
2623;DHT22;1321;48.690;9.022;2022-11-21T07:18:47;5.40;99.90
2623;DHT22;1321;48.690;9.022;2022-11-21T07:21:15;5.60;1.00
2623;DHT22;1321;48.690;9.022;2022-11-21T07:23:43;5.60;99.90
2623;DHT22;1321;48.690;9.022;2022-11-21T07:26:11;5.50;1.00
2623;DHT22;1321;48.690;9.022;2022-11-21T07:28:40;5.70;1.00
2623;DHT22;1321;48.690;9.022;2022-11-21T07:31:09;5.70;1.00
2623;DHT22;1321;48.690;9.022;2022-11-21T07:33:40;5.80;1.00
2623;DHT22;1321;48.690;9.022;2022-11-21T07:36:12;5.90;99.90
2623;DHT22;1321;48.690;9.022;2022-11-21T07:38:40;5.90;99.90
2623;DHT22;1321;48.690;9.022;2022-11-21T07:41:08;6.00;1.00
2623;DHT22;1321;48.690;9.022;2022-11-21T07:43:36;6.10;1.00
2623;DHT22;1321;48.690;9.022;2022-11-21T07:46:04;6.20;1.00
2623;DHT22;1321;48.690;9.022;2022-11-21T07:48:33;6.50;99.90
2623;DHT22;1321;48.690;9.022;2022-11-21T07:51:03;6.80;1.00
2623;DHT22;1321;48.690;9.022;2022-11-21T07:53:33;7.10;98.00
2623;DHT22;1321;48.690;9.022;2022-11-21T07:56:01;7.20;36.50
2623;DHT22;1321;48.690;9.022;2022-11-21T07:58:30;7.40;1.00
2623;DHT22;1321;48.690;9.022;2022-11-21T08:01:02;7.60;1.00
2623;DHT22;1321;48.690;9.022;2022-11-21T08:03:31;7.80;99.90
2623;DHT22;1321;48.690;9.022;2022-11-21T08:06:00;7.90;99.90
2623;DHT22;1321;48.690;9.022;2022-11-21T08:08:30;8.10;99.90
2623;DHT22;1321;48.690;9.022;2022-11-21T08:11:03;8.20;99.90
2623;DHT22;1321;48.690;9.022;2022-11-21T08:13:32;8.20;99.90
2623;DHT22;1321;48.690;9.022;2022-11-21T08:16:01;8.30;99.90
2623;DHT22;1321;48.690;9.022;2022-11-21T08:18:30;8.40;66.00
2623;DHT22;1321;48.690;9.022;2022-11-21T08:21:00;8.30;99.90
2623;DHT22;1321;48.690;9.022;2022-11-21T08:23:29;8.50;99.90
2623;DHT22;1321;48.690;9.022;2022-11-21T08:25:59;8.00;99.90
2623;DHT22;1321;48.690;9.022;2022-11-21T08:28:27;8.30;99.90
2623;DHT22;1321;48.690;9.022;2022-11-21T08:30:55;8.20;78.40
2623;DHT22;1321;48.690;9.022;2022-11-21T08:33:24;8.10;99.90
2623;DHT22;1321;48.690;9.022;2022-11-21T08:35:52;8.20;99.40
2623;DHT22;1321;48.690;9.022;2022-11-21T08:38:20;8.20;99.90
2623;DHT22;1321;48.690;9.022;2022-11-21T08:40:48;8.10;99.90
2623;DHT22;1321;48.690;9.022;2022-11-21T08:43:44;8.10;41.20
2623;DHT22;1321;48.690;9.022;2022-11-21T08:46:12;8.20;62.60
2623;DHT22;1321;48.690;9.022;2022-11-21T08:48:41;8.20;13.90
2623;DHT22;1321;48.690;9.022;2022-11-21T08:51:09;8.20;1.00
2623;DHT22;1321;48.690;9.022;2022-11-21T08:53:37;8.00;1.00
2623;DHT22;1321;48.690;9.022;2022-11-21T08:56:05;8.20;1.00
2623;DHT22;1321;48.690;9.022;2022-11-21T08:58:33;8.20;3.40
2623;DHT22;1321;48.690;9.022;2022-11-21T09:01:03;8.30;1.00
2623;DHT22;1321;48.690;9.022;2022-11-21T09:03:31;8.20;1.00
2623;DHT22;1321;48.690;9.022;2022-11-21T09:05:59;8.10;1.00
2623;DHT22;1321;48.690;9.022;2022-11-21T09:08:28;8.10;1.00
2623;DHT22;1321;48.690;9.022;2022-11-21T09:10:56;8.10;1.00
2623;DHT22;1321;48.690;9.022;2022-11-21T09:13:26;8.10;1.00
2623;DHT22;1321;48.690;9.022;2022-11-21T09:15:54;8.20;1.00
2623;DHT22;1321;48.690;9.022;2022-11-21T09:18:48;8.50;1.00
2623;DHT22;1321;48.690;9.022;2022-11-21T09:21:19;8.80;1.00
2623;DHT22;1321;48.690;9.022;2022-11-21T09:23:47;9.20;1.00
2623;DHT22;1321;48.690;9.022;2022-11-21T09:26:16;9.90;1.00
2623;DHT22;1321;48.690;9.022;2022-11-21T09:28:44;10.60;99.90
2623;DHT22;1321;48.690;9.022;2022-11-21T09:31:13;10.80;99.90
2623;DHT22;1321;48.690;9.022;2022-11-21T09:33:41;10.90;99.90
2623;DHT22;1321;48.690;9.022;2022-11-21T09:36:10;11.50;99.90
2623;DHT22;1321;48.690;9.022;2022-11-21T09:38:39;11.80;99.90
2623;DHT22;1321;48.690;9.022;2022-11-21T09:41:16;12.00;99.90
2623;DHT22;1321;48.690;9.022;2022-11-21T09:44:13;12.60;99.90
2623;DHT22;1321;48.690;9.022;2022-11-21T09:46:45;13.60;99.90
2623;DHT22;1321;48.690;9.022;2022-11-21T09:49:15;13.90;99.90
2623;DHT22;1321;48.690;9.022;2022-11-21T09:51:45;14.20;99.90
2623;DHT22;1321;48.690;9.022;2022-11-21T09:54:18;15.30;99.90
2623;DHT22;1321;48.690;9.022;2022-11-21T09:56:53;15.60;99.90
2623;DHT22;1321;48.690;9.022;2022-11-21T09:59:31;17.30;99.90
2623;DHT22;1321;48.690;9.022;2022-11-21T10:02:01;18.00;99.90
2623;DHT22;1321;48.690;9.022;2022-11-21T10:04:30;19.20;99.90
2623;DHT22;1321;48.690;9.022;2022-11-21T10:07:03;19.50;99.90
2623;DHT22;1321;48.690;9.022;2022-11-21T10:09:43;20.50;99.90
2623;DHT22;1321;48.690;9.022;2022-11-21T10:12:23;21.00;99.90
2623;DHT22;1321;48.690;9.022;2022-11-21T10:15:23;22.00;99.90
2623;DHT22;1321;48.690;9.022;2022-11-21T10:18:07;21.90;99.90
2623;DHT22;1321;48.690;9.022;2022-11-21T10:20:53;22.20;99.90
2623;DHT22;1321;48.690;9.022;2022-11-21T10:23:35;22.10;99.90
2623;DHT22;1321;48.690;9.022;2022-11-21T10:26:14;20.10;99.90
2623;DHT22;1321;48.690;9.022;2022-11-21T10:28:50;19.30;99.90
2623;DHT22;1321;48.690;9.022;2022-11-21T10:31:19;18.90;99.90
2623;DHT22;1321;48.690;9.022;2022-11-21T10:33:49;19.40;99.90
2623;DHT22;1321;48.690;9.022;2022-11-21T10:36:25;19.90;99.90
2623;DHT22;1321;48.690;9.022;2022-11-21T10:38:58;17.20;99.90
2623;DHT22;1321;48.690;9.022;2022-11-21T10:41:37;16.60;99.90
2623;DHT22;1321;48.690;9.022;2022-11-21T10:44:14;15.60;99.90
2623;DHT22;1321;48.690;9.022;2022-11-21T10:47:13;14.40;99.90
2623;DHT22;1321;48.690;9.022;2022-11-21T10:49:41;14.00;99.90
2623;DHT22;1321;48.690;9.022;2022-11-21T10:52:13;14.00;99.90
2623;DHT22;1321;48.690;9.022;2022-11-21T10:55:03;13.90;99.90
2623;DHT22;1321;48.690;9.022;2022-11-21T10:57:35;14.20;99.90
2623;DHT22;1321;48.690;9.022;2022-11-21T11:00:22;14.40;99.90
2623;DHT22;1321;48.690;9.022;2022-11-21T11:03:05;14.50;99.90
2623;DHT22;1321;48.690;9.022;2022-11-21T11:05:35;15.00;99.90
2623;DHT22;1321;48.690;9.022;2022-11-21T11:08:06;15.00;99.90
2623;DHT22;1321;48.690;9.022;2022-11-21T11:10:38;14.90;99.90
2623;DHT22;1321;48.690;9.022;2022-11-21T11:13:14;14.50;99.90
2623;DHT22;1321;48.690;9.022;2022-11-21T11:16:15;14.30;99.90
2623;DHT22;1321;48.690;9.022;2022-11-21T11:18:53;14.00;99.90
2623;DHT22;1321;48.690;9.022;2022-11-21T11:21:23;13.50;99.90
2623;DHT22;1321;48.690;9.022;2022-11-21T11:23:53;13.20;99.90
2623;DHT22;1321;48.690;9.022;2022-11-21T11:26:25;12.80;99.90
2623;DHT22;1321;48.690;9.022;2022-11-21T11:29:07;12.50;99.90
2623;DHT22;1321;48.690;9.022;2022-11-21T11:31:40;12.20;99.90
2623;DHT22;1321;48.690;9.022;2022-11-21T11:34:11;12.00;99.90
2623;DHT22;1321;48.690;9.022;2022-11-21T11:37:07;11.90;99.90
2623;DHT22;1321;48.690;9.022;2022-11-21T11:39:39;11.80;99.90
2623;DHT22;1321;48.690;9.022;2022-11-21T11:42:26;11.90;99.90
2623;DHT22;1321;48.690;9.022;2022-11-21T11:45:31;12.30;99.90
2623;DHT22;1321;48.690;9.022;2022-11-21T11:48:17;12.50;99.90
2623;DHT22;1321;48.690;9.022;2022-11-21T11:50:48;12.20;99.90
2623;DHT22;1321;48.690;9.022;2022-11-21T11:53:19;11.70;99.90
2623;DHT22;1321;48.690;9.022;2022-11-21T11:55:52;11.60;99.90
2623;DHT22;1321;48.690;9.022;2022-11-21T11:58:25;11.50;99.90
2623;DHT22;1321;48.690;9.022;2022-11-21T12:00:59;11.50;99.90
2623;DHT22;1321;48.690;9.022;2022-11-21T12:03:40;11.60;99.90
2623;DHT22;1321;48.690;9.022;2022-11-21T12:06:15;11.70;99.90
2623;DHT22;1321;48.690;9.022;2022-11-21T12:08:50;11.70;99.90
2623;DHT22;1321;48.690;9.022;2022-11-21T12:11:27;11.90;99.90
2623;DHT22;1321;48.690;9.022;2022-11-21T12:14:28;11.90;99.90
2623;DHT22;1321;48.690;9.022;2022-11-21T12:17:18;11.90;99.90
2623;DHT22;1321;48.690;9.022;2022-11-21T12:19:49;11.90;99.90
2623;DHT22;1321;48.690;9.022;2022-11-21T12:22:19;11.70;99.90
2623;DHT22;1321;48.690;9.022;2022-11-21T12:24:48;11.80;99.90
2623;DHT22;1321;48.690;9.022;2022-11-21T12:27:23;11.70;99.90
2623;DHT22;1321;48.690;9.022;2022-11-21T12:33:04;11.70;99.90
2623;DHT22;1321;48.690;9.022;2022-11-21T12:39:27;12.00;99.90
2623;DHT22;1321;48.690;9.022;2022-11-21T12:42:02;11.90;99.90
2623;DHT22;1321;48.690;9.022;2022-11-21T12:45:00;12.10;99.90
2623;DHT22;1321;48.690;9.022;2022-11-21T12:47:46;12.00;99.90
2623;DHT22;1321;48.690;9.022;2022-11-21T12:50:38;12.10;99.90
2623;DHT22;1321;48.690;9.022;2022-11-21T12:53:33;12.00;99.90
2623;DHT22;1321;48.690;9.022;2022-11-21T12:56:28;11.70;99.90
2623;DHT22;1321;48.690;9.022;2022-11-21T12:58:59;11.50;99.90
2623;DHT22;1321;48.690;9.022;2022-11-21T13:01:36;11.70;99.90
2623;DHT22;1321;48.690;9.022;2022-11-21T13:04:09;11.80;99.90
2623;DHT22;1321;48.690;9.022;2022-11-21T13:06:43;11.70;99.90
2623;DHT22;1321;48.690;9.022;2022-11-21T13:09:15;11.50;99.90
2623;DHT22;1321;48.690;9.022;2022-11-21T13:11:50;11.30;99.90
2623;DHT22;1321;48.690;9.022;2022-11-21T13:14:36;11.20;99.90
2623;DHT22;1321;48.690;9.022;2022-11-21T13:17:14;11.20;99.90
2623;DHT22;1321;48.690;9.022;2022-11-21T13:19:53;11.40;99.90
2623;DHT22;1321;48.690;9.022;2022-11-21T13:22:50;11.40;99.90
2623;DHT22;1321;48.690;9.022;2022-11-21T13:25:39;11.50;99.90
2623;DHT22;1321;48.690;9.022;2022-11-21T13:28:34;11.50;99.90
2623;DHT22;1321;48.690;9.022;2022-11-21T13:31:26;11.60;99.90
2623;DHT22;1321;48.690;9.022;2022-11-21T13:33:55;11.60;99.90
2623;DHT22;1321;48.690;9.022;2022-11-21T13:36:40;11.50;99.90
2623;DHT22;1321;48.690;9.022;2022-11-21T13:39:31;11.40;99.90
2623;DHT22;1321;48.690;9.022;2022-11-21T13:42:10;11.30;99.90
2623;DHT22;1321;48.690;9.022;2022-11-21T13:44:56;11.00;99.90
2623;DHT22;1321;48.690;9.022;2022-11-21T13:53:44;10.80;99.90
2623;DHT22;1321;48.690;9.022;2022-11-21T13:56:28;10.90;99.90
2623;DHT22;1321;48.690;9.022;2022-11-21T13:59:06;10.80;99.90
2623;DHT22;1321;48.690;9.022;2022-11-21T14:01:52;10.80;99.90
2623;DHT22;1321;48.690;9.022;2022-11-21T14:07:46;10.50;99.90
2623;DHT22;1321;48.690;9.022;2022-11-21T14:10:28;10.50;99.90
2623;DHT22;1321;48.690;9.022;2022-11-21T14:13:00;10.50;99.90
2623;DHT22;1321;48.690;9.022;2022-11-21T14:15:34;10.50;99.90
2623;DHT22;1321;48.690;9.022;2022-11-21T14:18:11;10.40;99.90
2623;DHT22;1321;48.690;9.022;2022-11-21T14:20:49;10.40;99.90
2623;DHT22;1321;48.690;9.022;2022-11-21T14:23:21;10.30;99.90
2623;DHT22;1321;48.690;9.022;2022-11-21T14:25:53;10.30;99.90
2623;DHT22;1321;48.690;9.022;2022-11-21T14:28:25;10.30;99.90
2623;DHT22;1321;48.690;9.022;2022-11-21T14:30:58;10.20;99.90
2623;DHT22;1321;48.690;9.022;2022-11-21T14:33:29;10.30;99.90
2623;DHT22;1321;48.690;9.022;2022-11-21T14:36:00;10.20;99.90
2623;DHT22;1321;48.690;9.022;2022-11-21T14:38:32;10.20;99.90
2623;DHT22;1321;48.690;9.022;2022-11-21T14:41:27;10.10;99.90
2623;DHT22;1321;48.690;9.022;2022-11-21T14:44:15;9.80;99.90
2623;DHT22;1321;48.690;9.022;2022-11-21T14:46:44;9.70;99.90
2623;DHT22;1321;48.690;9.022;2022-11-21T14:49:34;10.00;99.90
2623;DHT22;1321;48.690;9.022;2022-11-21T14:52:14;9.80;99.90
2623;DHT22;1321;48.690;9.022;2022-11-21T14:54:46;9.70;99.90
2623;DHT22;1321;48.690;9.022;2022-11-21T14:57:40;9.70;99.90
2623;DHT22;1321;48.690;9.022;2022-11-21T15:00:13;9.60;99.90
2623;DHT22;1321;48.690;9.022;2022-11-21T15:03:03;9.60;99.90
2623;DHT22;1321;48.690;9.022;2022-11-21T15:05:33;9.50;99.90
2623;DHT22;1321;48.690;9.022;2022-11-21T15:08:22;9.40;99.90
2623;DHT22;1321;48.690;9.022;2022-11-21T15:11:11;9.50;99.90
2623;DHT22;1321;48.690;9.022;2022-11-21T15:13:43;9.40;99.90
2623;DHT22;1321;48.690;9.022;2022-11-21T15:16:34;9.20;99.90
2623;DHT22;1321;48.690;9.022;2022-11-21T15:19:07;9.20;99.90
2623;DHT22;1321;48.690;9.022;2022-11-21T15:21:36;9.10;99.90
2623;DHT22;1321;48.690;9.022;2022-11-21T15:24:15;9.10;99.90
2623;DHT22;1321;48.690;9.022;2022-11-21T15:26:44;9.20;99.90
2623;DHT22;1321;48.690;9.022;2022-11-21T15:29:19;9.20;99.90
2623;DHT22;1321;48.690;9.022;2022-11-21T15:32:06;9.10;99.90
2623;DHT22;1321;48.690;9.022;2022-11-21T15:34:41;8.90;99.90
2623;DHT22;1321;48.690;9.022;2022-11-21T15:37:14;8.90;99.90
2623;DHT22;1321;48.690;9.022;2022-11-21T15:39:43;8.80;99.90
2623;DHT22;1321;48.690;9.022;2022-11-21T15:42:32;8.90;99.90
2623;DHT22;1321;48.690;9.022;2022-11-21T15:45:20;8.80;99.90
2623;DHT22;1321;48.690;9.022;2022-11-21T15:47:50;8.70;99.90
2623;DHT22;1321;48.690;9.022;2022-11-21T15:50:21;8.70;99.90
2623;DHT22;1321;48.690;9.022;2022-11-21T15:52:51;8.70;99.90
2623;DHT22;1321;48.690;9.022;2022-11-21T15:55:21;8.60;99.90
2623;DHT22;1321;48.690;9.022;2022-11-21T15:57:50;8.50;99.90
2623;DHT22;1321;48.690;9.022;2022-11-21T16:00:19;8.60;99.90
2623;DHT22;1321;48.690;9.022;2022-11-21T16:02:47;8.60;99.90
2623;DHT22;1321;48.690;9.022;2022-11-21T16:05:16;8.50;99.90
2623;DHT22;1321;48.690;9.022;2022-11-21T16:07:44;8.50;99.90
2623;DHT22;1321;48.690;9.022;2022-11-21T16:10:14;8.50;99.90
2623;DHT22;1321;48.690;9.022;2022-11-21T16:12:53;8.40;99.90
2623;DHT22;1321;48.690;9.022;2022-11-21T16:15:23;8.40;99.90
2623;DHT22;1321;48.690;9.022;2022-11-21T16:17:51;8.40;99.90
2623;DHT22;1321;48.690;9.022;2022-11-21T16:20:20;8.40;99.90
2623;DHT22;1321;48.690;9.022;2022-11-21T16:22:48;8.40;99.90
2623;DHT22;1321;48.690;9.022;2022-11-21T16:25:16;8.30;99.90
2623;DHT22;1321;48.690;9.022;2022-11-21T16:27:45;8.30;99.90
2623;DHT22;1321;48.690;9.022;2022-11-21T16:30:13;8.20;99.90
2623;DHT22;1321;48.690;9.022;2022-11-21T16:32:43;8.10;99.90
2623;DHT22;1321;48.690;9.022;2022-11-21T16:35:13;8.10;99.90
2623;DHT22;1321;48.690;9.022;2022-11-21T16:37:41;8.10;99.90
2623;DHT22;1321;48.690;9.022;2022-11-21T16:40:10;8.20;99.90
2623;DHT22;1321;48.690;9.022;2022-11-21T16:42:38;8.20;99.90
2623;DHT22;1321;48.690;9.022;2022-11-21T16:45:07;8.20;99.90
2623;DHT22;1321;48.690;9.022;2022-11-21T16:47:36;8.10;99.90
2623;DHT22;1321;48.690;9.022;2022-11-21T16:50:06;8.00;99.90
2623;DHT22;1321;48.690;9.022;2022-11-21T16:52:34;8.10;99.90
2623;DHT22;1321;48.690;9.022;2022-11-21T16:55:03;7.90;99.90
2623;DHT22;1321;48.690;9.022;2022-11-21T16:57:32;7.90;99.90
2623;DHT22;1321;48.690;9.022;2022-11-21T17:00:02;7.80;99.90
2623;DHT22;1321;48.690;9.022;2022-11-21T17:02:30;7.70;99.90
2623;DHT22;1321;48.690;9.022;2022-11-21T17:04:59;7.50;99.90
2623;DHT22;1321;48.690;9.022;2022-11-21T17:07:29;7.70;99.90
2623;DHT22;1321;48.690;9.022;2022-11-21T17:09:59;7.80;99.90